createdAt,value
2022-12-15T06:30:29.747Z,99523.09
2022-12-15T06:33:34.714Z,99539.84
2022-12-15T06:36:38.087Z,99539.84
2022-12-15T06:39:44.968Z,99528.97
2022-12-15T06:43:01.212Z,99532.72
2022-12-15T06:46:35.189Z,99527.69
2022-12-15T06:50:02.142Z,99533.00
2022-12-15T06:53:05.292Z,99546.09
2022-12-15T06:56:16.586Z,99548.22
2022-12-15T06:59:19.300Z,99557.78
2022-12-15T07:02:31.437Z,99562.03
2022-12-15T07:05:51.477Z,99564.75
2022-12-15T07:09:21.218Z,99561.00
2022-12-15T07:12:25.420Z,99585.75
2022-12-15T07:15:28.213Z,99597.47
2022-12-15T07:18:31.530Z,99610.00
2022-12-15T07:21:34.133Z,99610.00
2022-12-15T07:24:37.099Z,99609.75
2022-12-15T07:31:30.087Z,99608.16
2022-12-15T07:34:36.303Z,99604.94
2022-12-15T07:37:56.263Z,99601.47
2022-12-15T07:42:01.114Z,99611.84
2022-12-15T07:45:16.986Z,99625.97
2022-12-15T07:48:22.009Z,99632.34
2022-12-15T07:51:24.328Z,99622.00
2022-12-15T07:54:26.864Z,99637.16
2022-12-15T07:57:29.382Z,99646.19
2022-12-15T08:00:32.021Z,99649.16
2022-12-15T08:03:35.659Z,99639.81
2022-12-15T08:06:38.192Z,99640.38
2022-12-15T08:09:40.723Z,99641.19
2022-12-15T08:12:43.069Z,99649.44
2022-12-15T08:15:46.289Z,99651.84
2022-12-15T08:18:48.940Z,99649.72
2022-12-15T08:21:52.055Z,99667.53
2022-12-15T08:24:54.478Z,99674.75
2022-12-15T08:27:57.433Z,99670.47
2022-12-15T08:31:08.551Z,99688.59
2022-12-15T08:34:11.120Z,99685.94
2022-12-15T08:37:14.240Z,99682.72
2022-12-15T08:40:16.858Z,99682.22
2022-12-15T08:43:27.140Z,99695.25
2022-12-15T08:46:31.343Z,99679.03
2022-12-15T08:49:35.333Z,99690.50
2022-12-15T08:53:13.718Z,99686.22
2022-12-15T08:56:18.578Z,99695.28
2022-12-15T08:59:24.401Z,99715.78
2022-12-15T09:02:27.397Z,99713.66
2022-12-15T09:05:42.176Z,99723.50
2022-12-15T09:08:48.476Z,99721.16
2022-12-15T09:11:54.855Z,99708.34
2022-12-15T09:14:58.666Z,99693.97
2022-12-15T09:18:03.825Z,99693.41
2022-12-15T09:21:18.124Z,99704.91
2022-12-15T09:24:35.336Z,99703.56
2022-12-15T09:27:55.597Z,99703.81
2022-12-15T09:31:15.306Z,99696.91
2022-12-15T09:34:28.951Z,99698.47
2022-12-15T09:37:32.458Z,99688.06
2022-12-15T09:40:34.663Z,99677.12
2022-12-15T09:43:46.466Z,99690.47
2022-12-15T09:47:15.973Z,99684.59
2022-12-15T09:50:24.256Z,99707.25
2022-12-15T09:53:53.655Z,99693.38
2022-12-15T09:57:33.840Z,99694.44
2022-12-15T10:00:55.596Z,99697.34
2022-12-15T10:04:30.621Z,99702.94
2022-12-15T10:07:50.471Z,99721.91
2022-12-15T10:10:58.499Z,99721.13
2022-12-15T10:14:27.117Z,99717.13
2022-12-15T10:17:42.886Z,99725.13
2022-12-15T10:20:45.532Z,99709.13
2022-12-15T10:23:52.494Z,99701.13
2022-12-15T10:27:24.004Z,99703.53
2022-12-15T10:30:26.807Z,99712.84
2022-12-15T10:33:36.985Z,99708.56
2022-12-15T10:36:53.797Z,99701.66
2022-12-15T10:39:56.497Z,99705.09
2022-12-15T10:42:59.486Z,99698.41
2022-12-15T10:46:14.786Z,99689.91
2022-12-15T10:49:25.168Z,99692.81
2022-12-15T10:52:34.598Z,99685.31
2022-12-15T10:55:50.033Z,99693.59
2022-12-15T10:58:55.498Z,99699.44
2022-12-15T11:02:26.249Z,99693.00
2022-12-15T11:05:28.666Z,99692.78
2022-12-15T11:08:32.429Z,99694.38
2022-12-15T11:11:54.886Z,99700.53
2022-12-15T11:14:57.621Z,99712.84
2022-12-15T11:18:13.309Z,99705.34
2022-12-15T11:25:33.775Z,99696.75
2022-12-15T11:28:52.854Z,99691.13
2022-12-15T11:32:01.445Z,99690.91
2022-12-15T11:35:19.136Z,99698.41
2022-12-15T11:38:27.995Z,99692.78
2022-12-15T11:41:42.653Z,99688.53
2022-12-15T11:44:56.799Z,99696.25
2022-12-15T11:48:10.137Z,99700.78
2022-12-15T11:51:22.811Z,99712.50
2022-12-15T11:54:28.379Z,99717.09
2022-12-15T11:57:53.038Z,99709.34
2022-12-15T12:01:33.038Z,99719.19
2022-12-15T12:04:44.751Z,99714.38
2022-12-15T12:07:53.529Z,99720.78
2022-12-15T12:11:15.707Z,99718.91
2022-12-15T12:14:39.399Z,99708.22
2022-12-15T12:17:48.015Z,99715.41
2022-12-15T12:20:56.633Z,99714.66
2022-12-15T12:24:23.946Z,99711.66
2022-12-15T12:27:48.764Z,99711.13
2022-12-15T12:30:56.735Z,99695.13
2022-12-15T12:34:08.476Z,99692.72
2022-12-15T12:37:40.657Z,99687.38
2022-12-15T12:41:10.373Z,99694.53
2022-12-15T12:44:26.686Z,99702.31
2022-12-15T12:47:37.700Z,99696.44
2022-12-15T12:50:50.639Z,99690.31
2022-12-15T12:53:54.617Z,99693.78
2022-12-15T12:57:12.145Z,99689.47
2022-12-15T13:00:19.648Z,99696.44
2022-12-15T13:07:43.249Z,99709.00
2022-12-15T13:22:12.906Z,99730.56
2022-12-15T13:25:53.652Z,99726.81
2022-12-15T13:30:04.540Z,99729.78
2022-12-15T13:37:54.015Z,99723.38
2022-12-15T13:45:21.410Z,99734.87
2022-12-15T14:09:32.144Z,99732.53
2022-12-15T14:13:16.348Z,99725.63
2022-12-15T14:32:43.395Z,99714.94
2022-12-15T14:35:57.083Z,99706.88
2022-12-15T14:39:14.841Z,99710.09
2022-12-15T14:42:34.183Z,99722.38
2022-12-15T14:45:44.276Z,99728.28
2022-12-15T14:49:33.800Z,99729.59
2022-12-15T14:56:42.407Z,99729.59
2022-12-15T14:59:46.536Z,99733.87
2022-12-15T15:03:11.430Z,99718.59
2022-12-15T15:03:30.334Z,99747.22
2022-12-15T15:06:41.074Z,99749.91
2022-12-15T15:09:48.799Z,99741.91
2022-12-15T15:12:55.560Z,99757.91
2022-12-15T15:16:14.645Z,99754.97
2022-12-15T15:19:39.683Z,99761.91
2022-12-15T15:22:46.547Z,99762.97
2022-12-15T15:25:55.068Z,99744.84
2022-12-15T15:28:58.902Z,99742.69
2022-12-15T15:32:17.394Z,99741.63
2022-12-15T15:35:23.975Z,99743.22
2022-12-15T15:38:34.283Z,99732.25
2022-12-15T15:41:42.897Z,99733.87
2022-12-15T15:44:48.692Z,99721.06
2022-12-15T15:48:03.015Z,99722.66
2022-12-15T15:51:10.263Z,99727.47
2022-12-15T15:54:18.582Z,99726.13
2022-12-15T15:57:28.331Z,99717.88
2022-12-15T16:00:34.230Z,99709.31
2022-12-15T16:03:42.894Z,99715.72
2022-12-15T16:06:47.832Z,99718.91
2022-12-15T16:09:54.046Z,99713.34
2022-12-15T16:13:01.737Z,99721.88
2022-12-15T16:16:18.213Z,99724.81
2022-12-15T16:23:18.249Z,99723.47
2022-12-15T16:26:54.485Z,99719.22
2022-12-15T16:30:00.095Z,99714.41
2022-12-15T16:33:10.140Z,99708.25
2022-12-15T16:36:26.285Z,99717.59
2022-12-15T16:39:38.585Z,99723.44
2022-12-15T16:42:56.364Z,99729.06
2022-12-15T16:46:12.242Z,99733.87
2022-12-15T16:53:04.740Z,99739.47
2022-12-15T16:56:15.269Z,99737.06
2022-12-15T17:10:46.561Z,99761.66
2022-12-15T17:14:22.837Z,99773.63
2022-12-15T17:17:38.451Z,99758.16
2022-12-15T17:24:23.573Z,99758.16
2022-12-15T17:27:38.116Z,99770.97
2022-12-15T17:30:44.000Z,99765.34
2022-12-15T17:33:57.931Z,99760.53
2022-12-15T17:40:33.193Z,99751.22
2022-12-15T17:43:42.765Z,99748.28
2022-12-15T17:47:06.703Z,99759.22
2022-12-15T17:50:14.726Z,99762.44
2022-12-15T17:53:31.910Z,99768.06
2022-12-15T17:56:41.241Z,99749.37
2022-12-15T17:59:56.132Z,99752.84
2022-12-15T18:03:19.518Z,99752.06
2022-12-15T18:06:34.763Z,99747.22
2022-12-15T18:09:51.205Z,99753.59
2022-12-15T18:16:56.646Z,99746.44
2022-12-15T18:20:23.274Z,99745.34
2022-12-15T18:23:35.738Z,99750.16
2022-12-15T18:26:47.891Z,99746.44
2022-12-15T18:33:42.940Z,99752.28
2022-12-15T18:37:02.921Z,99746.97
2022-12-15T18:40:18.703Z,99741.09
2022-12-15T18:43:27.706Z,99750.69
2022-12-15T18:46:33.648Z,99764.84
2022-12-15T18:49:39.553Z,99754.72
2022-12-15T18:52:44.594Z,99751.50
2022-12-15T18:55:49.214Z,99744.03
2022-12-15T18:58:58.215Z,99737.91
2022-12-15T19:02:07.602Z,99737.38
2022-12-15T19:05:32.310Z,99739.75
2022-12-15T19:08:39.275Z,99722.16
2022-12-15T19:12:18.774Z,99717.59
2022-12-15T19:15:30.184Z,99711.19
2022-12-15T19:19:00.775Z,99715.72
2022-12-15T19:22:35.056Z,99725.88
2022-12-15T19:26:01.143Z,99737.91
2022-12-15T19:29:31.559Z,99746.72
2022-12-15T19:33:04.514Z,99742.19
2022-12-15T19:40:14.300Z,99724.03
2022-12-15T19:43:55.195Z,99726.97
2022-12-15T20:13:39.335Z,99659.97
2022-12-15T20:20:38.706Z,99638.84
2022-12-15T20:40:40.705Z,99644.53
2022-12-15T20:44:03.057Z,99646.66
2022-12-15T20:52:33.128Z,99648.25
2022-12-15T20:56:19.900Z,99642.37
2022-12-15T20:59:27.985Z,99610.06
2022-12-15T21:10:23.461Z,99642.66
2022-12-15T21:22:44.070Z,99616.53
2022-12-15T22:04:04.866Z,99567.37
2022-12-15T23:03:30.312Z,99522.28
2022-12-15T23:07:03.438Z,99530.31
2022-12-15T23:10:39.959Z,99510.25
2022-12-15T23:19:12.879Z,99499.31
2022-12-15T23:25:40.149Z,99493.25
2022-12-15T23:28:52.200Z,99483.31
2022-12-15T23:32:00.757Z,99481.72
2022-12-15T23:35:06.708Z,99483.53
2022-12-15T23:38:17.699Z,99482.53
2022-12-15T23:41:22.083Z,99475.28
2022-12-15T23:44:25.721Z,99468.34
2022-12-15T23:47:30.253Z,99462.72
2022-12-15T23:50:37.407Z,99458.16
2022-12-15T23:53:43.397Z,99452.81
2022-12-15T23:56:47.260Z,99461.34
2022-12-15T23:59:51.989Z,99460.84
